sensor_id;sensor_type;location;lat;lon;timestamp;temperature;humidity
16513;DHT22;8369;48.030;11.598;2023-06-10T00:00:07;16.50;99.90
16513;DHT22;8369;48.030;11.598;2023-06-10T00:02:34;16.50;99.90
16513;DHT22;8369;48.030;11.598;2023-06-10T00:05:01;16.50;99.90
16513;DHT22;8369;48.030;11.598;2023-06-10T00:07:29;16.40;99.90
16513;DHT22;8369;48.030;11.598;2023-06-10T00:09:55;16.40;99.90
16513;DHT22;8369;48.030;11.598;2023-06-10T00:12:25;16.30;99.90
16513;DHT22;8369;48.030;11.598;2023-06-10T00:14:54;16.20;99.90
16513;DHT22;8369;48.030;11.598;2023-06-10T00:17:24;16.20;99.90
16513;DHT22;8369;48.030;11.598;2023-06-10T00:19:50;16.20;99.90
16513;DHT22;8369;48.030;11.598;2023-06-10T00:22:19;16.20;99.90
16513;DHT22;8369;48.030;11.598;2023-06-10T00:24:47;16.10;99.90
16513;DHT22;8369;48.030;11.598;2023-06-10T00:27:17;16.10;99.90
16513;DHT22;8369;48.030;11.598;2023-06-10T00:29:52;16.10;99.90
16513;DHT22;8369;48.030;11.598;2023-06-10T00:32:25;16.10;99.90
16513;DHT22;8369;48.030;11.598;2023-06-10T00:35:02;16.00;99.90
16513;DHT22;8369;48.030;11.598;2023-06-10T00:37:29;16.00;99.90
16513;DHT22;8369;48.030;11.598;2023-06-10T00:39:58;15.90;99.90
16513;DHT22;8369;48.030;11.598;2023-06-10T00:42:28;15.90;99.90
16513;DHT22;8369;48.030;11.598;2023-06-10T00:44:54;15.80;99.90
16513;DHT22;8369;48.030;11.598;2023-06-10T00:47:25;15.80;99.90
16513;DHT22;8369;48.030;11.598;2023-06-10T00:49:53;15.70;99.90
16513;DHT22;8369;48.030;11.598;2023-06-10T00:52:22;15.70;99.90
16513;DHT22;8369;48.030;11.598;2023-06-10T00:54:57;15.60;99.90
16513;DHT22;8369;48.030;11.598;2023-06-10T00:57:25;15.60;99.90
16513;DHT22;8369;48.030;11.598;2023-06-10T00:59:55;15.60;99.90
16513;DHT22;8369;48.030;11.598;2023-06-10T01:02:21;15.60;99.90
16513;DHT22;8369;48.030;11.598;2023-06-10T01:04:53;15.60;99.90
16513;DHT22;8369;48.030;11.598;2023-06-10T01:07:24;15.50;99.90
16513;DHT22;8369;48.030;11.598;2023-06-10T01:10:20;15.60;99.90
16513;DHT22;8369;48.030;11.598;2023-06-10T01:12:59;15.60;99.90
16513;DHT22;8369;48.030;11.598;2023-06-10T01:15:30;15.50;99.90
16513;DHT22;8369;48.030;11.598;2023-06-10T01:18:10;15.50;99.90
16513;DHT22;8369;48.030;11.598;2023-06-10T01:20:38;15.50;99.90
16513;DHT22;8369;48.030;11.598;2023-06-10T01:23:11;15.50;99.90
16513;DHT22;8369;48.030;11.598;2023-06-10T01:25:53;15.50;99.90
16513;DHT22;8369;48.030;11.598;2023-06-10T01:28:31;15.60;99.90
16513;DHT22;8369;48.030;11.598;2023-06-10T01:33:51;15.50;99.90
16513;DHT22;8369;48.030;11.598;2023-06-10T01:36:22;15.40;99.90
16513;DHT22;8369;48.030;11.598;2023-06-10T01:38:53;15.40;99.90
16513;DHT22;8369;48.030;11.598;2023-06-10T01:41:20;15.40;99.90
16513;DHT22;8369;48.030;11.598;2023-06-10T01:43:47;15.30;99.90
16513;DHT22;8369;48.030;11.598;2023-06-10T01:46:18;15.30;99.90
16513;DHT22;8369;48.030;11.598;2023-06-10T01:48:51;15.30;99.90
16513;DHT22;8369;48.030;11.598;2023-06-10T01:51:17;15.30;99.90
16513;DHT22;8369;48.030;11.598;2023-06-10T01:53:46;15.30;99.90
16513;DHT22;8369;48.030;11.598;2023-06-10T01:56:17;15.30;99.90
16513;DHT22;8369;48.030;11.598;2023-06-10T01:58:51;15.30;99.90
16513;DHT22;8369;48.030;11.598;2023-06-10T02:01:20;15.30;99.90
16513;DHT22;8369;48.030;11.598;2023-06-10T02:03:49;15.30;99.90
16513;DHT22;8369;48.030;11.598;2023-06-10T02:06:21;15.30;99.90
16513;DHT22;8369;48.030;11.598;2023-06-10T02:08:47;15.20;99.90
16513;DHT22;8369;48.030;11.598;2023-06-10T02:11:17;15.20;99.90
16513;DHT22;8369;48.030;11.598;2023-06-10T02:13:46;15.20;99.90
16513;DHT22;8369;48.030;11.598;2023-06-10T02:16:17;15.20;99.90
16513;DHT22;8369;48.030;11.598;2023-06-10T02:18:47;15.20;99.90
16513;DHT22;8369;48.030;11.598;2023-06-10T02:21:14;15.10;99.90
16513;DHT22;8369;48.030;11.598;2023-06-10T02:23:41;15.10;99.90
16513;DHT22;8369;48.030;11.598;2023-06-10T02:26:16;15.00;99.90
16513;DHT22;8369;48.030;11.598;2023-06-10T02:28:43;15.00;99.90
16513;DHT22;8369;48.030;11.598;2023-06-10T02:31:13;15.00;99.90
16513;DHT22;8369;48.030;11.598;2023-06-10T02:33:44;14.90;99.90
16513;DHT22;8369;48.030;11.598;2023-06-10T02:36:15;14.90;99.90
16513;DHT22;8369;48.030;11.598;2023-06-10T02:38:50;14.80;99.90
16513;DHT22;8369;48.030;11.598;2023-06-10T02:41:19;14.80;99.90
16513;DHT22;8369;48.030;11.598;2023-06-10T02:44:05;14.70;99.90
16513;DHT22;8369;48.030;11.598;2023-06-10T02:46:31;14.70;99.90
16513;DHT22;8369;48.030;11.598;2023-06-10T02:49:00;14.70;99.90
16513;DHT22;8369;48.030;11.598;2023-06-10T02:51:31;14.60;99.90
16513;DHT22;8369;48.030;11.598;2023-06-10T02:53:59;14.60;99.90
16513;DHT22;8369;48.030;11.598;2023-06-10T02:56:32;14.50;99.90
16513;DHT22;8369;48.030;11.598;2023-06-10T02:59:10;14.50;99.90
16513;DHT22;8369;48.030;11.598;2023-06-10T03:01:44;14.60;99.90
16513;DHT22;8369;48.030;11.598;2023-06-10T03:04:14;14.60;99.90
16513;DHT22;8369;48.030;11.598;2023-06-10T03:06:43;14.50;99.90
16513;DHT22;8369;48.030;11.598;2023-06-10T03:09:13;14.50;99.90
16513;DHT22;8369;48.030;11.598;2023-06-10T03:11:42;14.50;99.90
16513;DHT22;8369;48.030;11.598;2023-06-10T03:14:08;14.40;99.90
16513;DHT22;8369;48.030;11.598;2023-06-10T03:16:41;14.40;99.90
16513;DHT22;8369;48.030;11.598;2023-06-10T03:19:10;14.40;99.90
16513;DHT22;8369;48.030;11.598;2023-06-10T03:21:43;14.40;99.90
16513;DHT22;8369;48.030;11.598;2023-06-10T03:24:12;14.40;99.90
16513;DHT22;8369;48.030;11.598;2023-06-10T03:26:45;14.40;99.90
16513;DHT22;8369;48.030;11.598;2023-06-10T03:29:14;14.40;99.90
16513;DHT22;8369;48.030;11.598;2023-06-10T03:31:44;14.30;99.90
16513;DHT22;8369;48.030;11.598;2023-06-10T03:34:17;14.30;99.90
16513;DHT22;8369;48.030;11.598;2023-06-10T03:36:48;14.30;99.90
16513;DHT22;8369;48.030;11.598;2023-06-10T03:39:20;14.30;99.90
16513;DHT22;8369;48.030;11.598;2023-06-10T03:41:52;14.30;99.90
16513;DHT22;8369;48.030;11.598;2023-06-10T03:44:24;14.20;99.90
16513;DHT22;8369;48.030;11.598;2023-06-10T03:46:56;14.20;99.90
16513;DHT22;8369;48.030;11.598;2023-06-10T03:49:23;14.30;99.90
16513;DHT22;8369;48.030;11.598;2023-06-10T03:51:56;14.20;99.90
16513;DHT22;8369;48.030;11.598;2023-06-10T03:54:22;14.20;99.90
16513;DHT22;8369;48.030;11.598;2023-06-10T03:56:49;14.30;99.90
16513;DHT22;8369;48.030;11.598;2023-06-10T03:59:19;14.30;99.90
16513;DHT22;8369;48.030;11.598;2023-06-10T04:01:50;14.30;99.90
16513;DHT22;8369;48.030;11.598;2023-06-10T04:04:21;14.40;99.90
16513;DHT22;8369;48.030;11.598;2023-06-10T04:06:47;14.40;99.90
16513;DHT22;8369;48.030;11.598;2023-06-10T04:09:17;14.40;99.90
16513;DHT22;8369;48.030;11.598;2023-06-10T04:11:49;14.40;99.90
16513;DHT22;8369;48.030;11.598;2023-06-10T04:14:22;14.50;99.90
16513;DHT22;8369;48.030;11.598;2023-06-10T04:16:49;14.50;99.90
16513;DHT22;8369;48.030;11.598;2023-06-10T04:19:18;14.60;99.90
16513;DHT22;8369;48.030;11.598;2023-06-10T04:21:46;14.60;99.90
16513;DHT22;8369;48.030;11.598;2023-06-10T04:24:12;14.60;99.90
16513;DHT22;8369;48.030;11.598;2023-06-10T04:26:41;14.70;99.90
16513;DHT22;8369;48.030;11.598;2023-06-10T04:29:08;14.70;99.90
16513;DHT22;8369;48.030;11.598;2023-06-10T04:31:37;14.70;99.90
16513;DHT22;8369;48.030;11.598;2023-06-10T04:34:03;14.80;99.90
16513;DHT22;8369;48.030;11.598;2023-06-10T04:36:35;14.80;99.90
16513;DHT22;8369;48.030;11.598;2023-06-10T04:39:05;14.90;99.90
16513;DHT22;8369;48.030;11.598;2023-06-10T04:41:37;14.90;99.90
16513;DHT22;8369;48.030;11.598;2023-06-10T04:44:07;15.00;99.90
16513;DHT22;8369;48.030;11.598;2023-06-10T04:46:34;15.10;99.90
16513;DHT22;8369;48.030;11.598;2023-06-10T04:49:08;15.10;99.90
16513;DHT22;8369;48.030;11.598;2023-06-10T04:51:55;15.20;99.90
16513;DHT22;8369;48.030;11.598;2023-06-10T04:54:21;15.30;99.90
16513;DHT22;8369;48.030;11.598;2023-06-10T04:56:51;15.40;99.90
16513;DHT22;8369;48.030;11.598;2023-06-10T04:59:27;15.40;99.90
16513;DHT22;8369;48.030;11.598;2023-06-10T05:01:57;15.50;99.90
16513;DHT22;8369;48.030;11.598;2023-06-10T05:04:25;15.60;99.90
16513;DHT22;8369;48.030;11.598;2023-06-10T05:06:54;15.70;99.90
16513;DHT22;8369;48.030;11.598;2023-06-10T05:09:30;15.80;99.90
16513;DHT22;8369;48.030;11.598;2023-06-10T05:11:59;15.90;99.90
16513;DHT22;8369;48.030;11.598;2023-06-10T05:14:31;16.00;99.90
16513;DHT22;8369;48.030;11.598;2023-06-10T05:17:05;16.20;99.90
16513;DHT22;8369;48.030;11.598;2023-06-10T05:19:33;16.30;99.90
16513;DHT22;8369;48.030;11.598;2023-06-10T05:22:12;16.40;99.90
16513;DHT22;8369;48.030;11.598;2023-06-10T05:24:42;16.50;99.90
16513;DHT22;8369;48.030;11.598;2023-06-10T05:27:32;16.60;99.90
16513;DHT22;8369;48.030;11.598;2023-06-10T05:29:58;16.70;99.90
16513;DHT22;8369;48.030;11.598;2023-06-10T05:32:27;16.80;99.90
16513;DHT22;8369;48.030;11.598;2023-06-10T05:35:03;16.90;99.90
16513;DHT22;8369;48.030;11.598;2023-06-10T05:37:30;17.00;99.90
16513;DHT22;8369;48.030;11.598;2023-06-10T05:40:07;17.10;99.90
16513;DHT22;8369;48.030;11.598;2023-06-10T05:42:58;17.20;99.90
16513;DHT22;8369;48.030;11.598;2023-06-10T05:48:33;17.40;99.90
16513;DHT22;8369;48.030;11.598;2023-06-10T05:51:00;17.50;99.90
16513;DHT22;8369;48.030;11.598;2023-06-10T05:53:42;17.60;99.90
16513;DHT22;8369;48.030;11.598;2023-06-10T05:56:22;17.70;99.90
16513;DHT22;8369;48.030;11.598;2023-06-10T05:59:37;17.80;99.90
16513;DHT22;8369;48.030;11.598;2023-06-10T06:02:03;17.90;99.90
16513;DHT22;8369;48.030;11.598;2023-06-10T06:04:30;18.00;99.90
16513;DHT22;8369;48.030;11.598;2023-06-10T06:07:00;18.10;99.90
16513;DHT22;8369;48.030;11.598;2023-06-10T06:09:26;18.10;99.90
16513;DHT22;8369;48.030;11.598;2023-06-10T06:12:00;18.20;99.90
16513;DHT22;8369;48.030;11.598;2023-06-10T06:14:26;18.30;99.90
16513;DHT22;8369;48.030;11.598;2023-06-10T06:16:52;18.30;99.90
16513;DHT22;8369;48.030;11.598;2023-06-10T06:19:21;18.40;99.90
16513;DHT22;8369;48.030;11.598;2023-06-10T06:21:48;18.50;99.90
16513;DHT22;8369;48.030;11.598;2023-06-10T06:24:15;18.60;99.90
16513;DHT22;8369;48.030;11.598;2023-06-10T06:26:42;18.70;99.90
16513;DHT22;8369;48.030;11.598;2023-06-10T06:29:12;18.80;99.90
16513;DHT22;8369;48.030;11.598;2023-06-10T06:31:38;18.90;99.90
16513;DHT22;8369;48.030;11.598;2023-06-10T06:34:04;18.90;99.90
16513;DHT22;8369;48.030;11.598;2023-06-10T06:36:33;19.00;99.90
16513;DHT22;8369;48.030;11.598;2023-06-10T06:39:03;19.10;99.90
16513;DHT22;8369;48.030;11.598;2023-06-10T06:41:30;19.20;99.90
16513;DHT22;8369;48.030;11.598;2023-06-10T06:43:57;19.20;99.90
16513;DHT22;8369;48.030;11.598;2023-06-10T06:46:23;19.30;99.90
16513;DHT22;8369;48.030;11.598;2023-06-10T06:48:49;19.40;99.90
16513;DHT22;8369;48.030;11.598;2023-06-10T06:51:25;19.40;99.90
16513;DHT22;8369;48.030;11.598;2023-06-10T06:53:51;19.50;99.90
16513;DHT22;8369;48.030;11.598;2023-06-10T06:56:19;19.60;99.90
16513;DHT22;8369;48.030;11.598;2023-06-10T06:58:46;19.70;99.90
16513;DHT22;8369;48.030;11.598;2023-06-10T07:01:12;19.80;99.90
16513;DHT22;8369;48.030;11.598;2023-06-10T07:03:41;19.90;99.90
16513;DHT22;8369;48.030;11.598;2023-06-10T07:06:07;20.00;99.90
16513;DHT22;8369;48.030;11.598;2023-06-10T07:08:41;20.00;99.90
16513;DHT22;8369;48.030;11.598;2023-06-10T07:11:13;20.20;99.90
16513;DHT22;8369;48.030;11.598;2023-06-10T07:13:40;20.30;99.90
16513;DHT22;8369;48.030;11.598;2023-06-10T07:16:37;20.30;99.90
16513;DHT22;8369;48.030;11.598;2023-06-10T07:22:35;20.50;99.90
16513;DHT22;8369;48.030;11.598;2023-06-10T07:35:37;20.90;99.90
16513;DHT22;8369;48.030;11.598;2023-06-10T07:38:03;21.10;99.90
16513;DHT22;8369;48.030;11.598;2023-06-10T07:40:30;21.10;99.90
16513;DHT22;8369;48.030;11.598;2023-06-10T07:43:07;21.20;99.90
16513;DHT22;8369;48.030;11.598;2023-06-10T07:45:34;21.20;99.90
16513;DHT22;8369;48.030;11.598;2023-06-10T07:48:00;21.30;99.90
16513;DHT22;8369;48.030;11.598;2023-06-10T07:50:26;21.40;99.90
16513;DHT22;8369;48.030;11.598;2023-06-10T07:52:53;21.40;99.90
16513;DHT22;8369;48.030;11.598;2023-06-10T07:55:19;21.50;99.90
16513;DHT22;8369;48.030;11.598;2023-06-10T07:57:45;21.60;99.90
16513;DHT22;8369;48.030;11.598;2023-06-10T08:00:14;21.70;99.90
16513;DHT22;8369;48.030;11.598;2023-06-10T08:02:41;22.00;98.20
16513;DHT22;8369;48.030;11.598;2023-06-10T08:05:07;22.00;98.20
16513;DHT22;8369;48.030;11.598;2023-06-10T08:07:36;22.10;98.40
16513;DHT22;8369;48.030;11.598;2023-06-10T08:10:03;22.10;98.40
16513;DHT22;8369;48.030;11.598;2023-06-10T08:12:36;22.20;98.30
16513;DHT22;8369;48.030;11.598;2023-06-10T08:15:06;22.30;98.50
16513;DHT22;8369;48.030;11.598;2023-06-10T08:17:32;22.30;97.00
16513;DHT22;8369;48.030;11.598;2023-06-10T08:19:58;22.30;97.00
16513;DHT22;8369;48.030;11.598;2023-06-10T08:22:25;22.30;97.20
16513;DHT22;8369;48.030;11.598;2023-06-10T08:24:51;22.40;97.30
16513;DHT22;8369;48.030;11.598;2023-06-10T08:27:18;22.40;96.40
16513;DHT22;8369;48.030;11.598;2023-06-10T08:29:50;22.50;95.50
16513;DHT22;8369;48.030;11.598;2023-06-10T08:32:17;22.70;93.70
16513;DHT22;8369;48.030;11.598;2023-06-10T08:34:44;22.70;93.70
16513;DHT22;8369;48.030;11.598;2023-06-10T08:37:11;22.80;93.60
16513;DHT22;8369;48.030;11.598;2023-06-10T08:39:38;22.80;93.90
16513;DHT22;8369;48.030;11.598;2023-06-10T08:42:22;22.90;92.70
16513;DHT22;8369;48.030;11.598;2023-06-10T08:44:54;23.00;92.60
16513;DHT22;8369;48.030;11.598;2023-06-10T08:47:25;23.00;90.80
16513;DHT22;8369;48.030;11.598;2023-06-10T08:49:53;23.00;92.40
16513;DHT22;8369;48.030;11.598;2023-06-10T08:52:26;23.10;91.30
16513;DHT22;8369;48.030;11.598;2023-06-10T08:54:57;23.20;90.40
16513;DHT22;8369;48.030;11.598;2023-06-10T08:57:23;23.30;91.20
16513;DHT22;8369;48.030;11.598;2023-06-10T08:59:56;23.30;90.20
16513;DHT22;8369;48.030;11.598;2023-06-10T09:02:23;23.30;88.50
16513;DHT22;8369;48.030;11.598;2023-06-10T09:04:50;23.30;89.40
16513;DHT22;8369;48.030;11.598;2023-06-10T09:07:16;23.40;89.70
16513;DHT22;8369;48.030;11.598;2023-06-10T09:09:43;23.40;88.90
16513;DHT22;8369;48.030;11.598;2023-06-10T09:12:14;23.50;89.50
16513;DHT22;8369;48.030;11.598;2023-06-10T09:14:41;23.60;89.50
16513;DHT22;8369;48.030;11.598;2023-06-10T09:17:07;23.70;89.40
16513;DHT22;8369;48.030;11.598;2023-06-10T09:19:35;23.80;85.10
16513;DHT22;8369;48.030;11.598;2023-06-10T09:22:04;23.90;86.20
16513;DHT22;8369;48.030;11.598;2023-06-10T09:24:30;24.00;86.20
16513;DHT22;8369;48.030;11.598;2023-06-10T09:27:07;24.10;84.70
16513;DHT22;8369;48.030;11.598;2023-06-10T09:29:53;24.20;84.40
16513;DHT22;8369;48.030;11.598;2023-06-10T09:32:21;24.20;82.80
16513;DHT22;8369;48.030;11.598;2023-06-10T09:34:50;24.30;84.10
16513;DHT22;8369;48.030;11.598;2023-06-10T09:37:21;24.20;85.00
16513;DHT22;8369;48.030;11.598;2023-06-10T09:40:07;24.30;84.80
16513;DHT22;8369;48.030;11.598;2023-06-10T09:42:38;24.10;84.20
16513;DHT22;8369;48.030;11.598;2023-06-10T09:45:08;24.10;85.10
16513;DHT22;8369;48.030;11.598;2023-06-10T09:47:34;23.90;85.00
16513;DHT22;8369;48.030;11.598;2023-06-10T09:50:06;23.90;84.70
16513;DHT22;8369;48.030;11.598;2023-06-10T09:52:32;23.90;84.70
16513;DHT22;8369;48.030;11.598;2023-06-10T09:55:00;24.00;85.10
16513;DHT22;8369;48.030;11.598;2023-06-10T09:57:31;24.10;84.80
16513;DHT22;8369;48.030;11.598;2023-06-10T10:00:09;24.10;85.40
16513;DHT22;8369;48.030;11.598;2023-06-10T10:02:51;24.20;85.10
16513;DHT22;8369;48.030;11.598;2023-06-10T10:05:21;24.30;84.80
16513;DHT22;8369;48.030;11.598;2023-06-10T10:07:48;24.50;83.60
16513;DHT22;8369;48.030;11.598;2023-06-10T10:10:15;24.60;83.40
16513;DHT22;8369;48.030;11.598;2023-06-10T10:12:42;24.70;81.30
16513;DHT22;8369;48.030;11.598;2023-06-10T10:15:12;24.70;79.60
16513;DHT22;8369;48.030;11.598;2023-06-10T10:18:11;24.70;80.30
16513;DHT22;8369;48.030;11.598;2023-06-10T10:20:47;24.80;82.80
16513;DHT22;8369;48.030;11.598;2023-06-10T10:23:18;25.00;81.60
16513;DHT22;8369;48.030;11.598;2023-06-10T10:25:52;24.90;80.20
16513;DHT22;8369;48.030;11.598;2023-06-10T10:28:22;24.80;81.60
16513;DHT22;8369;48.030;11.598;2023-06-10T10:30:52;24.60;82.40
16513;DHT22;8369;48.030;11.598;2023-06-10T10:33:22;24.50;83.70
16513;DHT22;8369;48.030;11.598;2023-06-10T10:35:53;24.40;84.20
16513;DHT22;8369;48.030;11.598;2023-06-10T10:38:19;24.30;84.50
16513;DHT22;8369;48.030;11.598;2023-06-10T10:40:48;24.20;84.80
16513;DHT22;8369;48.030;11.598;2023-06-10T10:43:16;24.10;86.00
16513;DHT22;8369;48.030;11.598;2023-06-10T10:45:42;24.10;86.60
16513;DHT22;8369;48.030;11.598;2023-06-10T10:48:12;24.30;85.60
16513;DHT22;8369;48.030;11.598;2023-06-10T10:50:39;24.30;85.40
16513;DHT22;8369;48.030;11.598;2023-06-10T10:53:08;24.50;84.80
16513;DHT22;8369;48.030;11.598;2023-06-10T10:55:36;24.70;84.20
16513;DHT22;8369;48.030;11.598;2023-06-10T10:58:07;24.80;82.20
16513;DHT22;8369;48.030;11.598;2023-06-10T11:00:34;25.00;79.70
16513;DHT22;8369;48.030;11.598;2023-06-10T11:08:05;25.50;75.00
16513;DHT22;8369;48.030;11.598;2023-06-10T11:10:33;25.60;76.80
16513;DHT22;8369;48.030;11.598;2023-06-10T11:13:00;25.60;75.20
16513;DHT22;8369;48.030;11.598;2023-06-10T11:15:28;25.70;75.80
16513;DHT22;8369;48.030;11.598;2023-06-10T11:26:20;25.60;77.30
16513;DHT22;8369;48.030;11.598;2023-06-10T11:33:58;25.70;77.90
16513;DHT22;8369;48.030;11.598;2023-06-10T11:36:25;25.70;75.20
16513;DHT22;8369;48.030;11.598;2023-06-10T11:39:12;25.60;75.90
16513;DHT22;8369;48.030;11.598;2023-06-10T11:41:39;25.60;77.80
16513;DHT22;8369;48.030;11.598;2023-06-10T11:44:11;25.40;75.30
16513;DHT22;8369;48.030;11.598;2023-06-10T11:46:37;25.40;77.00
16513;DHT22;8369;48.030;11.598;2023-06-10T11:49:04;25.30;77.10
16513;DHT22;8369;48.030;11.598;2023-06-10T11:51:38;25.40;77.30
16513;DHT22;8369;48.030;11.598;2023-06-10T11:54:08;25.40;75.20
16513;DHT22;8369;48.030;11.598;2023-06-10T11:56:35;25.60;75.80
16513;DHT22;8369;48.030;11.598;2023-06-10T11:59:04;25.60;73.00
16513;DHT22;8369;48.030;11.598;2023-06-10T12:01:33;25.40;71.40
16513;DHT22;8369;48.030;11.598;2023-06-10T12:04:04;25.50;72.90
16513;DHT22;8369;48.030;11.598;2023-06-10T12:06:46;25.70;72.40
16513;DHT22;8369;48.030;11.598;2023-06-10T12:09:25;25.70;71.40
16513;DHT22;8369;48.030;11.598;2023-06-10T12:12:05;25.80;71.20
16513;DHT22;8369;48.030;11.598;2023-06-10T12:14:56;25.90;71.10
16513;DHT22;8369;48.030;11.598;2023-06-10T12:20:00;26.20;71.20
16513;DHT22;8369;48.030;11.598;2023-06-10T12:22:26;26.10;68.20
16513;DHT22;8369;48.030;11.598;2023-06-10T12:25:00;26.20;69.70
16513;DHT22;8369;48.030;11.598;2023-06-10T12:27:28;26.40;70.70
16513;DHT22;8369;48.030;11.598;2023-06-10T12:29:55;26.50;70.10
16513;DHT22;8369;48.030;11.598;2023-06-10T12:32:22;26.50;68.80
16513;DHT22;8369;48.030;11.598;2023-06-10T12:35:05;26.30;68.80
16513;DHT22;8369;48.030;11.598;2023-06-10T12:37:32;26.20;68.30
16513;DHT22;8369;48.030;11.598;2023-06-10T12:40:03;26.20;69.10
16513;DHT22;8369;48.030;11.598;2023-06-10T12:42:30;26.20;68.00
16513;DHT22;8369;48.030;11.598;2023-06-10T12:44:57;26.30;65.70
16513;DHT22;8369;48.030;11.598;2023-06-10T12:47:36;26.30;66.80
16513;DHT22;8369;48.030;11.598;2023-06-10T12:50:05;26.40;66.80
16513;DHT22;8369;48.030;11.598;2023-06-10T12:52:31;26.50;67.40
16513;DHT22;8369;48.030;11.598;2023-06-10T12:54:58;26.50;64.40
16513;DHT22;8369;48.030;11.598;2023-06-10T12:57:24;26.40;64.80
16513;DHT22;8369;48.030;11.598;2023-06-10T12:59:51;26.30;66.00
16513;DHT22;8369;48.030;11.598;2023-06-10T13:02:19;26.30;64.70
16513;DHT22;8369;48.030;11.598;2023-06-10T13:04:49;26.40;65.60
16513;DHT22;8369;48.030;11.598;2023-06-10T13:07:18;26.50;65.30
16513;DHT22;8369;48.030;11.598;2023-06-10T13:09:44;26.50;67.90
16513;DHT22;8369;48.030;11.598;2023-06-10T13:12:12;26.50;69.50
16513;DHT22;8369;48.030;11.598;2023-06-10T13:14:38;26.60;69.80
16513;DHT22;8369;48.030;11.598;2023-06-10T13:17:05;26.70;69.70
16513;DHT22;8369;48.030;11.598;2023-06-10T13:19:34;26.60;68.60
16513;DHT22;8369;48.030;11.598;2023-06-10T13:22:00;26.70;69.10
16513;DHT22;8369;48.030;11.598;2023-06-10T13:24:25;26.70;68.00
16513;DHT22;8369;48.030;11.598;2023-06-10T13:26:53;26.70;69.50
16513;DHT22;8369;48.030;11.598;2023-06-10T13:29:20;26.70;71.10
16513;DHT22;8369;48.030;11.598;2023-06-10T13:31:47;26.80;71.50
16513;DHT22;8369;48.030;11.598;2023-06-10T13:34:13;26.80;73.30
16513;DHT22;8369;48.030;11.598;2023-06-10T13:36:48;26.70;73.30
16513;DHT22;8369;48.030;11.598;2023-06-10T13:39:43;26.50;73.90
16513;DHT22;8369;48.030;11.598;2023-06-10T13:42:09;26.40;74.30
16513;DHT22;8369;48.030;11.598;2023-06-10T13:44:36;26.40;74.90
16513;DHT22;8369;48.030;11.598;2023-06-10T13:47:05;26.50;75.30
16513;DHT22;8369;48.030;11.598;2023-06-10T13:49:32;26.40;74.90
16513;DHT22;8369;48.030;11.598;2023-06-10T13:51:59;26.20;75.30
16513;DHT22;8369;48.030;11.598;2023-06-10T13:54:26;26.00;75.30
16513;DHT22;8369;48.030;11.598;2023-06-10T13:56:53;25.70;75.30
16513;DHT22;8369;48.030;11.598;2023-06-10T13:59:19;25.50;75.90
16513;DHT22;8369;48.030;11.598;2023-06-10T14:01:46;25.50;76.80
16513;DHT22;8369;48.030;11.598;2023-06-10T14:04:12;25.50;77.40
16513;DHT22;8369;48.030;11.598;2023-06-10T14:06:39;25.50;75.30
16513;DHT22;8369;48.030;11.598;2023-06-10T14:09:06;25.60;75.30
16513;DHT22;8369;48.030;11.598;2023-06-10T14:11:32;25.70;75.20
16513;DHT22;8369;48.030;11.598;2023-06-10T14:13:58;25.70;73.90
16513;DHT22;8369;48.030;11.598;2023-06-10T14:16:26;25.80;74.30
16513;DHT22;8369;48.030;11.598;2023-06-10T14:18:52;25.80;73.00
16513;DHT22;8369;48.030;11.598;2023-06-10T14:21:18;25.70;72.60
16513;DHT22;8369;48.030;11.598;2023-06-10T14:23:44;25.60;73.60
16513;DHT22;8369;48.030;11.598;2023-06-10T14:26:11;25.50;74.70
16513;DHT22;8369;48.030;11.598;2023-06-10T14:28:40;25.50;74.60
16513;DHT22;8369;48.030;11.598;2023-06-10T14:31:06;25.60;73.80
16513;DHT22;8369;48.030;11.598;2023-06-10T14:33:33;25.70;73.20
16513;DHT22;8369;48.030;11.598;2023-06-10T14:35:59;25.70;72.40
16513;DHT22;8369;48.030;11.598;2023-06-10T14:38:25;25.70;71.80
16513;DHT22;8369;48.030;11.598;2023-06-10T14:40:51;25.60;70.60
16513;DHT22;8369;48.030;11.598;2023-06-10T14:43:18;25.70;70.60
16513;DHT22;8369;48.030;11.598;2023-06-10T14:45:44;25.60;72.00
16513;DHT22;8369;48.030;11.598;2023-06-10T14:48:13;25.60;71.10
16513;DHT22;8369;48.030;11.598;2023-06-10T14:50:39;25.60;70.60
16513;DHT22;8369;48.030;11.598;2023-06-10T14:53:07;25.70;70.90
16513;DHT22;8369;48.030;11.598;2023-06-10T14:55:33;25.70;70.30
16513;DHT22;8369;48.030;11.598;2023-06-10T14:57:59;25.80;70.40
16513;DHT22;8369;48.030;11.598;2023-06-10T15:00:25;25.90;70.70
16513;DHT22;8369;48.030;11.598;2023-06-10T15:02:52;26.00;70.60
16513;DHT22;8369;48.030;11.598;2023-06-10T15:05:21;26.00;70.10
16513;DHT22;8369;48.030;11.598;2023-06-10T15:07:50;26.00;70.70
16513;DHT22;8369;48.030;11.598;2023-06-10T15:10:18;26.00;70.70
16513;DHT22;8369;48.030;11.598;2023-06-10T15:12:47;25.90;70.70
16513;DHT22;8369;48.030;11.598;2023-06-10T15:15:13;25.90;71.20
16513;DHT22;8369;48.030;11.598;2023-06-10T15:17:42;25.90;70.90
16513;DHT22;8369;48.030;11.598;2023-06-10T15:20:11;25.80;70.60
16513;DHT22;8369;48.030;11.598;2023-06-10T15:22:40;25.70;70.40
16513;DHT22;8369;48.030;11.598;2023-06-10T15:25:06;25.70;71.10
16513;DHT22;8369;48.030;11.598;2023-06-10T15:27:32;25.60;70.60
16513;DHT22;8369;48.030;11.598;2023-06-10T15:29:58;25.60;71.10
16513;DHT22;8369;48.030;11.598;2023-06-10T15:32:24;25.50;74.90
16513;DHT22;8369;48.030;11.598;2023-06-10T15:34:50;25.30;75.50
16513;DHT22;8369;48.030;11.598;2023-06-10T15:37:21;25.20;75.20
16513;DHT22;8369;48.030;11.598;2023-06-10T15:39:49;25.20;75.00
16513;DHT22;8369;48.030;11.598;2023-06-10T15:42:15;25.20;75.00
16513;DHT22;8369;48.030;11.598;2023-06-10T15:44:42;25.20;75.30
16513;DHT22;8369;48.030;11.598;2023-06-10T15:47:10;25.20;75.30
16513;DHT22;8369;48.030;11.598;2023-06-10T15:49:36;25.30;75.60
16513;DHT22;8369;48.030;11.598;2023-06-10T15:52:02;25.20;75.20
16513;DHT22;8369;48.030;11.598;2023-06-10T15:54:29;25.20;74.70
16513;DHT22;8369;48.030;11.598;2023-06-10T15:56:55;25.30;74.90
16513;DHT22;8369;48.030;11.598;2023-06-10T15:59:21;25.20;74.40
16513;DHT22;8369;48.030;11.598;2023-06-10T16:01:48;25.30;75.00
16513;DHT22;8369;48.030;11.598;2023-06-10T16:04:14;25.30;75.50
16513;DHT22;8369;48.030;11.598;2023-06-10T16:06:43;25.40;75.90
16513;DHT22;8369;48.030;11.598;2023-06-10T16:09:09;25.50;76.40
16513;DHT22;8369;48.030;11.598;2023-06-10T16:11:36;25.60;76.50
16513;DHT22;8369;48.030;11.598;2023-06-10T16:14:02;25.60;76.20
16513;DHT22;8369;48.030;11.598;2023-06-10T16:16:28;25.50;77.30
16513;DHT22;8369;48.030;11.598;2023-06-10T16:18:55;25.40;78.50
16513;DHT22;8369;48.030;11.598;2023-06-10T16:21:22;25.30;79.00
16513;DHT22;8369;48.030;11.598;2023-06-10T16:23:47;25.20;79.40
16513;DHT22;8369;48.030;11.598;2023-06-10T16:26:15;25.20;79.70